Time;durP1;ratioP1;P1;durP2;ratioP2;P2;SDS_P1;SDS_P2;PMS_P1;PMS_P2;Temp;Humidity;BMP_temperature;BMP_pressure;BME280_temperature;BME280_humidity;BME280_pressure;Samples;Min_cycle;Max_cycle;Signal;HPM_P1;HPM_P2
2023/01/15 00:00:01;;;;;;;;;;;;;;;13.16;75.78;99417.66;1052991;28;660;-72
2023/01/15 00:00:52;;;;;;;;;;;;;;;13.16;76.50;99424.84;1048727;28;786;-72
2023/01/15 00:01:42;;;;;;;;;;;;;;;13.16;76.24;99422.16;1047701;28;571;-72
2023/01/15 00:02:32;;;;;;;;;;;;;;;13.17;75.54;99418.50;1048372;28;598;-72
2023/01/15 00:03:23;;;;;;;;;;;;;;;13.16;75.48;99424.84;1051207;28;1171;-72
2023/01/15 00:04:13;;;;;;;;;;;;;;;13.15;75.44;99417.81;1052020;28;657;-70
2023/01/15 00:05:04;;;;;;;;;;;;;;;13.14;75.99;99413.41;1052699;28;1154;-72
2023/01/15 00:05:54;;;;;;;;;;;;;;;13.13;75.58;99415.25;1051855;28;741;-72
2023/01/15 00:06:45;;;;;;;;;;;;;;;13.15;75.70;99420.47;1052345;28;1210;-72
2023/01/15 00:07:35;;;;;;;;;;;;;;;13.15;76.25;99423.16;1051275;28;1209;-72
2023/01/15 00:08:25;;;;;;;;;;;;;;;13.15;75.85;99420.47;1052041;28;706;-73
2023/01/15 00:09:16;;;;;;;;;;;;;;;13.13;75.74;99415.25;1051726;28;1127;-72
2023/01/15 00:10:06;;;;;;;;;;;;;;;13.14;76.35;99416.09;1051888;28;685;-73
2023/01/15 00:10:57;;;;;;;;;;;;;;;13.14;76.32;99416.94;1051597;28;713;-73
2023/01/15 00:11:47;;;;;;;;;;;;;;;13.14;75.94;99421.44;1051882;28;646;-72
2023/01/15 00:12:38;;;;;;;;;;;;;;;13.14;76.22;99418.75;1052147;28;658;-72
2023/01/15 00:13:28;;;;;;;;;;;;;;;13.12;75.84;99413.56;1050247;28;1001;-72
2023/01/15 00:14:18;;;;;;;;;;;;;;;13.11;75.55;99422.56;1051810;28;1584;-72
2023/01/15 00:15:09;;;;;;;;;;;;;;;13.12;75.92;99418.91;1051097;28;992;-72
2023/01/15 00:15:59;;;;;;;;;;;;;;;13.12;76.31;99426.09;1052003;28;673;-73
2023/01/15 00:16:50;;;;;;;;;;;;;;;13.14;75.88;99408.91;1050942;28;1142;-72
2023/01/15 00:17:41;;;;;;;;;;;;;;;13.17;76.08;99415.81;1051694;28;713;-73
2023/01/15 00:18:31;;;;;;;;;;;;;;;13.16;75.93;99419.50;1052015;28;1222;-72
2023/01/15 00:19:22;;;;;;;;;;;;;;;13.16;76.35;99419.50;1052186;28;816;-72
2023/01/15 00:20:12;;;;;;;;;;;;;;;13.14;75.54;99416.09;1050143;28;1083;-72
2023/01/15 00:21:03;;;;;;;;;;;;;;;13.14;75.54;99413.41;1051820;28;1898;-73
2023/01/15 00:21:53;;;;;;;;;;;;;;;13.15;76.10;99421.31;1051260;28;682;-72
2023/01/15 00:22:43;;;;;;;;;;;;;;;13.14;75.88;99414.25;1052509;28;799;-72
2023/01/15 00:28:10;;;;;;;;;;;;;;;13.11;75.60;99405.69;1052511;28;1095;-73
2023/01/15 00:29:01;;;;;;;;;;;;;;;13.11;75.53;99411.88;1052819;28;787;-72
2023/01/15 00:29:51;;;;;;;;;;;;;;;13.10;75.47;99404.84;1048471;28;676;-73
2023/01/15 00:30:42;;;;;;;;;;;;;;;13.10;75.58;99404.00;1047311;28;1204;-73
2023/01/15 00:31:32;;;;;;;;;;;;;;;13.10;75.88;99404.00;1052216;28;593;-73
2023/01/15 00:32:25;;;;;;;;;;;;;;;13.09;75.88;99397.81;1050361;28;717;-73
2023/01/15 00:33:16;;;;;;;;;;;;;;;13.09;75.49;99402.31;1051639;28;638;-72
2023/01/15 00:34:06;;;;;;;;;;;;;;;13.08;75.83;99403.31;1051285;28;704;-73
2023/01/15 00:34:57;;;;;;;;;;;;;;;13.08;75.33;99408.66;1052319;28;721;-73
2023/01/15 00:35:47;;;;;;;;;;;;;;;13.08;75.54;99405.97;1051997;28;702;-72
2023/01/15 00:36:39;;;;;;;;;;;;;;;13.09;75.48;99410.34;1051889;28;1170;-72
2023/01/15 00:37:29;;;;;;;;;;;;;;;13.09;75.95;99413.00;1052411;28;870;-72
2023/01/15 00:38:20;;;;;;;;;;;;;;;13.09;75.84;99413.84;1051800;28;1099;-72
2023/01/15 00:39:10;;;;;;;;;;;;;;;13.07;75.91;99418.53;1048148;28;593;-72
2023/01/15 00:40:00;;;;;;;;;;;;;;;13.06;75.22;99408.84;1049961;28;1165;-72
2023/01/15 00:40:51;;;;;;;;;;;;;;;13.06;75.28;99408.00;1048104;28;630;-72
2023/01/15 00:41:42;;;;;;;;;;;;;;;13.07;75.17;99409.69;1050504;28;1162;-72
2023/01/15 00:42:32;;;;;;;;;;;;;;;13.06;75.98;99408.84;1052296;28;1486;-72
2023/01/15 00:43:23;;;;;;;;;;;;;;;13.06;75.43;99403.47;1053075;28;725;-72
2023/01/15 00:44:13;;;;;;;;;;;;;;;13.04;75.24;99401.94;1050713;28;1575;-72
2023/01/15 00:45:08;;;;;;;;;;;;;;;13.04;75.20;99400.13;1052685;28;697;-72
2023/01/15 00:45:59;;;;;;;;;;;;;;;13.05;75.69;99403.63;1052256;28;1155;-73
2023/01/15 00:46:49;;;;;;;;;;;;;;;13.04;75.30;99400.13;1052487;28;655;-73
2023/01/15 00:47:40;;;;;;;;;;;;;;;13.04;75.17;99409.97;1052644;28;1214;-73
2023/01/15 00:48:30;;;;;;;;;;;;;;;13.02;76.01;99402.09;1052404;28;650;-72
2023/01/15 00:49:20;;;;;;;;;;;;;;;13.02;75.32;99395.91;1049675;28;708;-73
2023/01/15 00:50:11;;;;;;;;;;;;;;;13.02;75.35;99402.09;1051386;28;698;-71
2023/01/15 00:51:01;;;;;;;;;;;;;;;13.02;75.70;99393.22;1052098;28;665;-73
2023/01/15 00:51:52;;;;;;;;;;;;;;;13.03;75.09;99400.25;1053154;28;1054;-70
2023/01/15 00:52:42;;;;;;;;;;;;;;;13.02;75.99;99395.91;1052547;28;750;-71
2023/01/15 00:53:33;;;;;;;;;;;;;;;13.02;75.27;99391.41;1045784;28;723;-70
2023/01/15 00:54:23;;;;;;;;;;;;;;;13.02;75.77;99401.25;1045560;28;1156;-72
2023/01/15 00:55:13;;;;;;;;;;;;;;;13.02;75.13;99401.25;1048976;28;665;-71
2023/01/15 00:56:04;;;;;;;;;;;;;;;13.02;75.05;99395.91;1050246;28;1167;-70
2023/01/15 00:56:54;;;;;;;;;;;;;;;13.02;75.31;99398.56;1048940;28;657;-70
2023/01/15 00:57:45;;;;;;;;;;;;;;;13.01;75.41;99399.56;1048639;28;642;-71
2023/01/15 00:58:35;;;;;;;;;;;;;;;13.00;75.33;99401.41;1049523;28;613;-73
2023/01/15 00:59:26;;;;;;;;;;;;;;;12.99;75.54;99402.38;1052273;28;1203;-72
2023/01/15 01:00:16;;;;;;;;;;;;;;;13.00;75.27;99398.72;1052476;28;654;-73
2023/01/15 01:01:06;;;;;;;;;;;;;;;12.99;75.57;99394.38;1052292;28;1973;-73
2023/01/15 01:01:57;;;;;;;;;;;;;;;12.98;75.58;99395.34;1053602;28;1247;-73
2023/01/15 01:02:47;;;;;;;;;;;;;;;12.99;75.63;99393.53;1051701;28;953;-72
2023/01/15 01:03:38;;;;;;;;;;;;;;;12.98;75.31;99394.50;1052793;28;665;-72
2023/01/15 01:04:28;;;;;;;;;;;;;;;12.98;75.19;99398.03;1052286;28;1170;-72
2023/01/15 01:05:18;;;;;;;;;;;;;;;12.98;74.97;99397.19;1052121;28;740;-72
2023/01/15 01:06:09;;;;;;;;;;;;;;;12.97;75.53;99399.03;1051319;28;1024;-72
2023/01/15 01:06:59;;;;;;;;;;;;;;;12.98;74.92;99400.72;1052555;28;648;-70
2023/01/15 01:07:50;;;;;;;;;;;;;;;12.97;75.24;99399.03;1052730;28;972;-70
2023/01/15 01:08:40;;;;;;;;;;;;;;;12.97;75.76;99393.66;1052581;28;685;-70
2023/01/15 01:09:31;;;;;;;;;;;;;;;12.97;75.70;99407.03;1053140;28;738;-70
2023/01/15 01:10:21;;;;;;;;;;;;;;;12.96;75.16;99407.19;1052473;28;628;-69
2023/01/15 01:11:12;;;;;;;;;;;;;;;12.96;75.00;99413.38;1052665;28;630;-72
2023/01/15 01:12:02;;;;;;;;;;;;;;;12.96;75.23;99402.69;1052456;28;717;-72
2023/01/15 01:12:53;;;;;;;;;;;;;;;12.95;75.70;99401.00;1052411;28;1210;-72
2023/01/15 01:13:43;;;;;;;;;;;;;;;12.97;75.83;99399.03;1053090;28;677;-72
2023/01/15 01:14:33;;;;;;;;;;;;;;;12.97;75.42;99398.19;1051106;28;1096;-71
2023/01/15 01:15:24;;;;;;;;;;;;;;;12.97;75.01;99404.38;1052362;28;650;-72
2023/01/15 01:16:15;;;;;;;;;;;;;;;12.95;74.92;99410.84;1051569;28;1162;-71
2023/01/15 01:17:05;;;;;;;;;;;;;;;12.95;75.05;99410.84;1052383;28;746;-72
2023/01/15 01:17:56;;;;;;;;;;;;;;;12.95;75.38;99405.50;1052616;28;697;-72
2023/01/15 01:18:46;;;;;;;;;;;;;;;12.95;75.43;99402.84;1052993;28;695;-71
2023/01/15 01:19:36;;;;;;;;;;;;;;;12.94;75.43;99410.00;1049049;28;661;-72
2023/01/15 01:20:27;;;;;;;;;;;;;;;12.96;74.95;99404.50;1050033;28;746;-72
2023/01/15 01:21:17;;;;;;;;;;;;;;;12.95;75.16;99424.22;1052300;28;1965;-72
2023/01/15 01:22:08;;;;;;;;;;;;;;;12.94;74.90;99411.84;1052606;28;694;-72
2023/01/15 01:22:58;;;;;;;;;;;;;;;12.93;75.18;99411.00;1052565;28;546;-72
2023/01/15 01:23:49;;;;;;;;;;;;;;;12.95;75.62;99422.41;1053074;28;774;-71
2023/01/15 01:24:39;;;;;;;;;;;;;;;12.94;75.58;99411.84;1049102;28;708;-72
2023/01/15 01:25:29;;;;;;;;;;;;;;;12.94;75.30;99409.16;1045025;28;731;-72
2023/01/15 01:26:20;;;;;;;;;;;;;;;12.95;75.66;99416.19;1044354;28;657;-71
2023/01/15 01:27:10;;;;;;;;;;;;;;;12.94;75.62;99419.88;1049024;28;638;-72
2023/01/15 01:28:01;;;;;;;;;;;;;;;12.92;75.20;99403.13;1051479;28;1202;-72
2023/01/15 01:28:51;;;;;;;;;;;;;;;12.91;75.47;99410.31;1048843;28;682;-71
2023/01/15 01:29:42;;;;;;;;;;;;;;;12.92;75.51;99411.16;1049353;28;1206;-73
2023/01/15 01:30:32;;;;;;;;;;;;;;;12.91;74.85;99414.81;1048784;28;1156;-72
2023/01/15 01:31:22;;;;;;;;;;;;;;;12.91;74.96;99417.47;1050921;28;1175;-72
2023/01/15 01:32:13;;;;;;;;;;;;;;;12.91;75.46;99415.66;1048771;28;925;-72
2023/01/15 01:33:03;;;;;;;;;;;;;;;12.89;75.08;99415.00;1050355;28;1166;-73
2023/01/15 01:33:54;;;;;;;;;;;;;;;12.90;75.53;99413.97;1052258;28;701;-72
2023/01/15 01:34:44;;;;;;;;;;;;;;;12.91;75.06;99414.81;1051456;28;681;-72
2023/01/15 01:35:35;;;;;;;;;;;;;;;12.90;74.66;99413.16;1053181;28;649;-70
2023/01/15 01:36:25;;;;;;;;;;;;;;;12.90;74.96;99413.16;1052115;28;937;-72
2023/01/15 01:37:16;;;;;;;;;;;;;;;12.90;74.85;99415.84;1052578;28;558;-70
2023/01/15 01:38:06;;;;;;;;;;;;;;;12.92;75.23;99421.84;1052291;28;746;-73
2023/01/15 01:38:56;;;;;;;;;;;;;;;12.91;74.83;99420.16;1052346;28;658;-72
2023/01/15 01:39:47;;;;;;;;;;;;;;;12.90;74.96;99419.31;1052643;28;940;-72
2023/01/15 01:40:40;;;;;;;;;;;;;;;12.89;75.07;99423.00;1052472;28;703;-72
2023/01/15 01:41:30;;;;;;;;;;;;;;;12.90;75.32;99423.84;1052562;28;1890;-72
2023/01/15 01:42:21;;;;;;;;;;;;;;;12.89;75.42;99428.34;1053030;28;1367;-72
2023/01/15 01:43:11;;;;;;;;;;;;;;;12.90;74.91;99424.66;1052582;28;1109;-72
2023/01/15 01:44:02;;;;;;;;;;;;;;;12.88;75.33;99429.34;1052542;28;622;-72
2023/01/15 01:44:52;;;;;;;;;;;;;;;12.89;74.79;99432.88;1052673;28;1363;-72
2023/01/15 01:45:43;;;;;;;;;;;;;;;12.88;75.57;99424.00;1052527;28;786;-72
2023/01/15 01:46:33;;;;;;;;;;;;;;;12.89;74.69;99427.50;1050925;28;1142;-72
2023/01/15 01:47:24;;;;;;;;;;;;;;;12.89;75.19;99428.34;1052464;28;1167;-73
2023/01/15 01:48:14;;;;;;;;;;;;;;;12.88;75.35;99431.19;1049328;28;637;-72
2023/01/15 01:49:04;;;;;;;;;;;;;;;12.87;74.87;99430.34;1049768;28;1182;-72
2023/01/15 01:49:55;;;;;;;;;;;;;;;12.87;75.13;99430.34;1052243;28;638;-72
2023/01/15 01:50:45;;;;;;;;;;;;;;;12.89;75.25;99430.19;1053282;28;1238;-72
2023/01/15 01:51:36;;;;;;;;;;;;;;;12.87;75.44;99430.34;1052635;28;713;-70
2023/01/15 01:52:26;;;;;;;;;;;;;;;12.86;75.61;99440.19;1052202;28;1171;-71
2023/01/15 01:53:17;;;;;;;;;;;;;;;12.87;74.89;99430.34;1052473;28;675;-71
2023/01/15 01:54:07;;;;;;;;;;;;;;;12.88;75.18;99431.19;1052210;28;1190;-69
2023/01/15 01:54:58;;;;;;;;;;;;;;;12.85;75.36;99441.19;1052436;28;654;-71
2023/01/15 01:55:48;;;;;;;;;;;;;;;12.88;75.36;99441.88;1053458;28;732;-71
2023/01/15 01:56:38;;;;;;;;;;;;;;;12.85;75.36;99434.97;1052182;28;965;-72
2023/01/15 01:57:29;;;;;;;;;;;;;;;12.85;74.80;99435.81;1052487;28;709;-71
2023/01/15 01:58:19;;;;;;;;;;;;;;;12.87;75.41;99446.38;1052689;28;1160;-72
2023/01/15 01:59:10;;;;;;;;;;;;;;;12.85;75.46;99427.81;1049693;28;1016;-72
2023/01/15 02:00:00;;;;;;;;;;;;;;;12.85;75.06;99427.81;1052187;28;681;-72
2023/01/15 02:00:51;;;;;;;;;;;;;;;12.82;75.15;99430.78;1048801;28;591;-69
2023/01/15 02:01:41;;;;;;;;;;;;;;;12.82;74.90;99429.94;1051525;28;635;-69
2023/01/15 02:02:31;;;;;;;;;;;;;;;12.83;74.78;99429.78;1049580;28;1024;-71
2023/01/15 02:03:22;;;;;;;;;;;;;;;12.83;75.64;99431.63;1051633;28;823;-72
2023/01/15 02:04:12;;;;;;;;;;;;;;;12.82;75.47;99422.75;1052327;28;629;-72
2023/01/15 02:05:03;;;;;;;;;;;;;;;12.83;75.21;99424.44;1052438;28;744;-72
2023/01/15 02:05:53;;;;;;;;;;;;;;;12.83;74.77;99427.09;1049808;28;679;-72
2023/01/15 02:06:44;;;;;;;;;;;;;;;12.82;75.19;99417.41;1051192;28;1159;-72
2023/01/15 02:07:34;;;;;;;;;;;;;;;12.83;75.17;99420.91;1052240;28;618;-72
2023/01/15 02:08:25;;;;;;;;;;;;;;;12.82;75.73;99412.06;1052481;28;716;-72
2023/01/15 02:09:15;;;;;;;;;;;;;;;12.83;74.72;99421.75;1052088;28;1194;-72
2023/01/15 02:10:06;;;;;;;;;;;;;;;12.82;75.27;99414.72;1052374;28;674;-69
2023/01/15 02:10:56;;;;;;;;;;;;;;;12.82;75.55;99417.41;1051968;28;1349;-71
2023/01/15 02:11:47;;;;;;;;;;;;;;;12.81;75.52;99415.72;1052301;28;705;-72
2023/01/15 02:12:37;;;;;;;;;;;;;;;12.80;75.35;99414.03;1052116;28;646;-69
2023/01/15 02:13:27;;;;;;;;;;;;;;;12.82;74.74;99416.56;1052878;28;714;-72
2023/01/15 02:14:18;;;;;;;;;;;;;;;12.81;75.75;99418.41;1052370;28;1103;-72
2023/01/15 02:15:08;;;;;;;;;;;;;;;12.82;74.83;99421.91;1052189;28;809;-72
2023/01/15 02:15:59;;;;;;;;;;;;;;;12.82;75.57;99422.75;1052744;28;1119;-71
2023/01/15 02:16:49;;;;;;;;;;;;;;;12.80;74.83;99424.72;1048001;28;682;-72
2023/01/15 02:17:39;;;;;;;;;;;;;;;12.81;75.02;99428.25;1049504;28;1159;-72
2023/01/15 02:18:30;;;;;;;;;;;;;;;12.82;75.43;99421.91;1048845;28;751;-72
2023/01/15 02:19:20;;;;;;;;;;;;;;;12.80;74.62;99422.06;1049553;28;1175;-72
2023/01/15 02:20:11;;;;;;;;;;;;;;;12.81;75.08;99420.22;1048683;28;696;-72
2023/01/15 02:21:01;;;;;;;;;;;;;;;12.80;75.45;99424.72;1052136;28;685;-72
2023/01/15 02:21:52;;;;;;;;;;;;;;;12.80;74.79;99411.38;1049842;28;1152;-69
2023/01/15 02:22:42;;;;;;;;;;;;;;;12.81;75.63;99418.41;1052042;28;683;-70
2023/01/15 02:23:32;;;;;;;;;;;;;;;12.80;74.71;99403.34;1052378;28;642;-72
2023/01/15 02:24:23;;;;;;;;;;;;;;;12.82;75.59;99405.88;1052667;28;1135;-70
2023/01/15 02:25:13;;;;;;;;;;;;;;;12.80;74.90;99414.03;1052299;28;673;-70
2023/01/15 02:26:04;;;;;;;;;;;;;;;12.80;74.95;99402.50;1052182;28;1154;-70
2023/01/15 02:26:54;;;;;;;;;;;;;;;12.79;75.08;99412.34;1052068;28;685;-70
2023/01/15 02:27:45;;;;;;;;;;;;;;;12.77;75.23;99411.66;1052136;28;1357;-70
2023/01/15 02:28:36;;;;;;;;;;;;;;;12.77;74.60;99414.31;1052040;28;657;-69
2023/01/15 02:29:26;;;;;;;;;;;;;;;12.79;74.84;99419.53;1051993;28;739;-70
2023/01/15 02:30:16;;;;;;;;;;;;;;;12.79;74.83;99417.69;1052152;28;684;-70
2023/01/15 02:31:07;;;;;;;;;;;;;;;12.78;74.71;99420.50;1052405;28;686;-70
2023/01/15 02:31:57;;;;;;;;;;;;;;;12.76;75.32;99420.66;1052646;28;1217;-70
2023/01/15 02:32:48;;;;;;;;;;;;;;;12.76;74.41;99418.00;1052231;28;737;-70
2023/01/15 02:33:38;;;;;;;;;;;;;;;12.76;75.37;99412.63;1051964;28;1325;-70
2023/01/15 02:34:29;;;;;;;;;;;;;;;12.77;75.55;99417.00;1049640;28;1000;-70
2023/01/15 02:35:19;;;;;;;;;;;;;;;12.75;75.17;99413.63;1052059;28;638;-71
2023/01/15 02:36:09;;;;;;;;;;;;;;;12.75;75.51;99416.31;1051948;28;1192;-70
2023/01/15 02:37:00;;;;;;;;;;;;;;;12.75;75.42;99418.13;1052292;28;748;-71
2023/01/15 02:37:50;;;;;;;;;;;;;;;12.76;75.55;99417.16;1052025;28;1131;-70
2023/01/15 02:38:41;;;;;;;;;;;;;;;12.74;74.71;99421.78;1052881;28;728;-71
2023/01/15 02:39:31;;;;;;;;;;;;;;;12.74;75.19;99419.13;1052359;28;1107;-70
2023/01/15 02:40:21;;;;;;;;;;;;;;;12.73;75.47;99412.94;1052193;28;771;-70
2023/01/15 02:41:15;;;;;;;;;;;;;;;12.73;75.18;99412.09;1049980;28;1894;-70
2023/01/15 02:42:05;;;;;;;;;;;;;;;12.71;75.17;99409.59;1049203;28;1371;-70
2023/01/15 02:42:56;;;;;;;;;;;;;;;12.71;75.01;99422.97;1052138;28;1107;-70
2023/01/15 02:43:46;;;;;;;;;;;;;;;12.72;75.51;99415.78;1051862;28;1584;-70
2023/01/15 02:44:37;;;;;;;;;;;;;;;12.73;74.81;99412.09;1049811;28;744;-70
2023/01/15 02:45:27;;;;;;;;;;;;;;;12.73;75.03;99402.25;1051490;28;710;-69
2023/01/15 02:46:18;;;;;;;;;;;;;;;12.72;75.36;99408.56;1048269;28;694;-69
2023/01/15 02:47:08;;;;;;;;;;;;;;;12.72;74.60;99403.22;1048510;28;693;-70
2023/01/15 02:47:59;;;;;;;;;;;;;;;12.72;74.92;99403.22;1053386;28;744;-70
2023/01/15 02:48:49;;;;;;;;;;;;;;;12.72;75.19;99405.91;1048297;28;700;-69
2023/01/15 02:49:40;;;;;;;;;;;;;;;12.71;74.94;99398.91;1048136;28;688;-70
2023/01/15 02:50:30;;;;;;;;;;;;;;;12.72;75.00;99407.75;1051268;28;1055;-70
2023/01/15 02:51:20;;;;;;;;;;;;;;;12.70;74.98;99405.25;1052122;28;642;-70
2023/01/15 02:52:11;;;;;;;;;;;;;;;12.70;75.57;99415.94;1048681;28;646;-70
2023/01/15 02:53:04;;;;;;;;;;;;;;;12.70;75.38;99415.94;1048458;28;677;-70
2023/01/15 02:53:54;;;;;;;;;;;;;;;12.69;74.79;99408.91;1047831;28;647;-70
2023/01/15 02:54:45;;;;;;;;;;;;;;;12.71;74.70;99412.28;1049499;28;1151;-70
2023/01/15 02:55:35;;;;;;;;;;;;;;;12.69;75.08;99406.22;1048412;28;681;-70
2023/01/15 02:56:26;;;;;;;;;;;;;;;12.69;75.02;99408.91;1047851;28;1084;-69
2023/01/15 02:57:16;;;;;;;;;;;;;;;12.69;74.71;99400.03;1048135;28;637;-70
2023/01/15 02:58:06;;;;;;;;;;;;;;;12.68;75.57;99404.53;1047936;28;1218;-70
2023/01/15 02:58:57;;;;;;;;;;;;;;;12.68;74.96;99409.03;1052562;28;1513;-69
2023/01/15 02:59:47;;;;;;;;;;;;;;;12.67;75.13;99415.38;1051686;28;1110;-69
2023/01/15 03:00:38;;;;;;;;;;;;;;;12.67;75.37;99413.53;1052235;28;646;-70
2023/01/15 03:01:28;;;;;;;;;;;;;;;12.68;75.58;99417.06;1051176;28;1977;-70
2023/01/15 03:02:19;;;;;;;;;;;;;;;12.69;75.14;99408.06;1052096;28;1227;-70
2023/01/15 03:03:09;;;;;;;;;;;;;;;12.68;75.51;99404.53;1051891;28;1130;-70
2023/01/15 03:04:00;;;;;;;;;;;;;;;12.68;75.45;99406.38;1050827;28;1354;-69
2023/01/15 03:04:50;;;;;;;;;;;;;;;12.66;74.89;99406.50;1051366;28;714;-70
2023/01/15 03:05:41;;;;;;;;;;;;;;;12.69;75.16;99400.03;1052089;28;661;-69
2023/01/15 03:06:31;;;;;;;;;;;;;;;12.67;75.53;99402.84;1052557;28;769;-69
2023/01/15 03:07:22;;;;;;;;;;;;;;;12.67;74.50;99402.84;1052103;28;639;-69
2023/01/15 03:08:12;;;;;;;;;;;;;;;12.66;74.89;99403.84;1052409;28;777;-69
2023/01/15 03:09:02;;;;;;;;;;;;;;;12.66;74.61;99400.31;1052054;28;701;-68
2023/01/15 03:09:53;;;;;;;;;;;;;;;12.68;75.25;99406.38;1050572;28;1059;-69
2023/01/15 03:10:43;;;;;;;;;;;;;;;12.67;74.59;99402.84;1052105;28;661;-69
2023/01/15 03:11:36;;;;;;;;;;;;;;;12.67;75.49;99407.34;1053335;28;700;-69
2023/01/15 03:12:27;;;;;;;;;;;;;;;12.66;75.30;99394.97;1052061;28;649;-69
2023/01/15 03:13:17;;;;;;;;;;;;;;;12.67;75.27;99396.66;1052245;28;1166;-68
2023/01/15 03:14:07;;;;;;;;;;;;;;;12.64;75.44;99388.94;1052391;28;1243;-68
2023/01/15 03:14:58;;;;;;;;;;;;;;;12.66;74.50;99398.50;1052303;28;740;-68
2023/01/15 03:16:58;;;;;;;;;;;;;;;12.66;75.25;99387.81;1049086;28;677;-71
2023/01/15 03:17:48;;;;;;;;;;;;;;;12.66;75.23;99395.81;1049282;28;1079;-69
2023/01/15 03:18:39;;;;;;;;;;;;;;;12.67;74.94;99392.16;1052145;28;646;-72
2023/01/15 03:19:29;;;;;;;;;;;;;;;12.66;75.07;99390.47;1051004;28;1072;-70
2023/01/15 03:20:20;;;;;;;;;;;;;;;12.67;75.38;99391.31;1052057;28;743;-70
2023/01/15 03:21:10;;;;;;;;;;;;;;;12.68;74.67;99399.19;1049825;28;1882;-71
2023/01/15 03:22:01;;;;;;;;;;;;;;;12.67;75.20;99402.84;1052623;28;614;-71
2023/01/15 03:22:51;;;;;;;;;;;;;;;12.66;74.49;99394.97;1052068;28;1087;-71
2023/01/15 03:23:41;;;;;;;;;;;;;;;12.66;74.23;99401.16;1052045;28;607;-71
2023/01/15 03:24:32;;;;;;;;;;;;;;;12.66;74.88;99393.16;1052118;28;673;-71
2023/01/15 03:25:22;;;;;;;;;;;;;;;12.67;75.12;99397.50;1051973;28;766;-72
2023/01/15 03:26:13;;;;;;;;;;;;;;;12.68;74.62;99393.00;1052509;28;1205;-71
2023/01/15 03:27:03;;;;;;;;;;;;;;;12.66;74.32;99395.81;1051686;28;996;-71
2023/01/15 03:27:54;;;;;;;;;;;;;;;12.65;75.09;99390.63;1052086;28;615;-72
2023/01/15 03:28:44;;;;;;;;;;;;;;;12.66;74.88;99394.97;1050054;28;710;-72
2023/01/15 03:29:35;;;;;;;;;;;;;;;12.65;74.35;99396.81;1052057;28;638;-72
2023/01/15 03:30:25;;;;;;;;;;;;;;;12.65;74.99;99394.13;1051635;28;685;-72
2023/01/15 03:31:15;;;;;;;;;;;;;;;12.64;75.06;99397.81;1051693;28;1103;-72
2023/01/15 03:32:06;;;;;;;;;;;;;;;12.65;74.76;99396.81;1052071;28;757;-69
2023/01/15 03:32:56;;;;;;;;;;;;;;;12.66;74.39;99392.31;1051838;28;694;-70
2023/01/15 03:33:47;;;;;;;;;;;;;;;12.66;74.68;99403.84;1052156;28;1259;-70
2023/01/15 03:34:37;;;;;;;;;;;;;;;12.64;74.12;99392.47;1052404;28;658;-70
2023/01/15 03:35:27;;;;;;;;;;;;;;;12.64;74.86;99404.97;1050339;28;1091;-70
2023/01/15 03:36:18;;;;;;;;;;;;;;;12.64;74.56;99387.13;1052213;28;618;-70
2023/01/15 03:37:08;;;;;;;;;;;;;;;12.63;74.71;99390.78;1048232;28;712;-72
2023/01/15 03:37:59;;;;;;;;;;;;;;;12.65;74.19;99399.47;1048458;28;697;-72
2023/01/15 03:38:49;;;;;;;;;;;;;;;12.63;74.42;99385.44;1052806;28;1198;-71
2023/01/15 03:39:40;;;;;;;;;;;;;;;12.64;74.61;99381.75;1052052;28;720;-72
2023/01/15 03:40:30;;;;;;;;;;;;;;;12.63;74.22;99385.44;1050846;28;1085;-70
2023/01/15 03:41:21;;;;;;;;;;;;;;;12.63;74.10;99388.09;1051843;28;1886;-71
2023/01/15 03:42:11;;;;;;;;;;;;;;;12.63;74.55;99393.44;1052110;28;662;-70
2023/01/15 03:44:11;;;;;;;;;;;;;;;12.64;74.66;99391.63;1048414;28;673;-72
2023/01/15 03:45:01;;;;;;;;;;;;;;;12.62;74.71;99397.09;1048296;28;685;-72
2023/01/15 03:45:51;;;;;;;;;;;;;;;12.60;74.13;99390.22;1048904;28;655;-72
2023/01/15 03:46:42;;;;;;;;;;;;;;;12.57;75.15;99396.69;1047950;28;657;-72
2023/01/15 03:47:33;;;;;;;;;;;;;;;12.58;74.98;99398.38;1048230;28;1115;-73
2023/01/15 03:48:23;;;;;;;;;;;;;;;12.57;75.10;99395.84;1048823;28;681;-72
2023/01/15 03:49:14;;;;;;;;;;;;;;;12.56;75.32;99395.00;1049732;28;1308;-73
2023/01/15 03:50:04;;;;;;;;;;;;;;;12.58;74.44;99389.53;1048386;28;705;-73
2023/01/15 03:50:54;;;;;;;;;;;;;;;12.59;75.04;99397.41;1047706;28;677;-72
2023/01/15 03:51:45;;;;;;;;;;;;;;;12.58;74.12;99393.03;1048341;28;638;-73
2023/01/15 03:52:35;;;;;;;;;;;;;;;12.58;74.57;99393.03;1048784;28;1234;-72
2023/01/15 03:53:26;;;;;;;;;;;;;;;12.60;74.89;99390.22;1052073;28;783;-72
2023/01/15 03:54:16;;;;;;;;;;;;;;;12.60;74.96;99400.91;1051548;28;1225;-72
2023/01/15 03:55:06;;;;;;;;;;;;;;;12.59;74.38;99393.88;1051896;28;590;-72
2023/01/15 03:55:57;;;;;;;;;;;;;;;12.58;74.65;99401.06;1051966;28;670;-72
2023/01/15 03:56:54;;;;;;;;;;;;;;;12.55;74.55;99393.31;1051769;28;641;-72
2023/01/15 03:57:44;;;;;;;;;;;;;;;12.54;74.12;99388.97;1051688;28;749;-72
2023/01/15 03:58:35;;;;;;;;;;;;;;;12.57;74.94;99380.66;1051700;28;1143;-70
2023/01/15 03:59:25;;;;;;;;;;;;;;;12.55;74.32;99387.97;1051575;28;789;-72
2023/01/15 04:00:15;;;;;;;;;;;;;;;12.57;74.36;99386.00;1052248;28;1194;-72
2023/01/15 04:01:06;;;;;;;;;;;;;;;12.57;74.76;99387.84;1048356;28;1091;-70
2023/01/15 04:01:56;;;;;;;;;;;;;;;12.55;75.05;99387.13;1051614;28;1191;-70
2023/01/15 04:02:47;;;;;;;;;;;;;;;12.54;75.01;99391.66;1049419;28;1151;-70
2023/01/15 04:03:37;;;;;;;;;;;;;;;12.55;74.46;99387.13;1051505;28;1478;-71
2023/01/15 04:04:28;;;;;;;;;;;;;;;12.56;75.07;99391.50;1049414;28;649;-70
2023/01/15 04:05:18;;;;;;;;;;;;;;;12.55;74.46;99392.50;1049468;28;669;-70
2023/01/15 04:06:08;;;;;;;;;;;;;;;12.54;74.32;99382.81;1048192;28;700;-70
2023/01/15 04:06:59;;;;;;;;;;;;;;;12.56;74.24;99378.97;1048983;28;713;-70
2023/01/15 04:07:50;;;;;;;;;;;;;;;12.55;74.99;99385.31;1049438;28;1079;-70
2023/01/15 04:08:40;;;;;;;;;;;;;;;12.55;75.16;99392.50;1052048;28;663;-70
2023/01/15 04:09:30;;;;;;;;;;;;;;;12.53;74.79;99395.34;1051639;28;1170;-70
2023/01/15 04:10:21;;;;;;;;;;;;;;;12.54;74.91;99382.81;1051948;28;736;-70
2023/01/15 04:11:11;;;;;;;;;;;;;;;12.54;74.73;99390.84;1051569;28;1164;-70
2023/01/15 04:12:02;;;;;;;;;;;;;;;12.52;75.19;99393.66;1051877;28;726;-70
2023/01/15 04:12:52;;;;;;;;;;;;;;;12.51;74.86;99381.28;1051949;28;1135;-70
2023/01/15 04:13:42;;;;;;;;;;;;;;;12.50;75.22;99384.94;1051356;28;769;-70
2023/01/15 04:14:33;;;;;;;;;;;;;;;12.53;74.71;99384.66;1051783;28;1159;-70
2023/01/15 04:15:23;;;;;;;;;;;;;;;12.51;74.28;99382.13;1051675;28;710;-70
2023/01/15 04:16:14;;;;;;;;;;;;;;;12.51;74.98;99381.28;1052194;28;1162;-70
2023/01/15 04:17:04;;;;;;;;;;;;;;;12.50;74.13;99388.44;1051614;28;829;-70
2023/01/15 04:17:55;;;;;;;;;;;;;;;12.51;75.06;99391.97;1051708;28;1229;-71
2023/01/15 04:18:45;;;;;;;;;;;;;;;12.50;75.18;99388.44;1048377;28;680;-70
2023/01/15 04:19:35;;;;;;;;;;;;;;;12.49;75.35;99388.59;1047672;28;674;-69
2023/01/15 04:20:26;;;;;;;;;;;;;;;12.50;75.13;99391.13;1048355;28;681;-70
2023/01/15 04:21:16;;;;;;;;;;;;;;;12.48;74.61;99385.09;1050972;28;1902;-70
2023/01/15 04:22:07;;;;;;;;;;;;;;;12.50;74.83;99384.94;1048334;28;689;-70
2023/01/15 04:22:57;;;;;;;;;;;;;;;12.49;74.29;99388.59;1051625;28;641;-70
2023/01/15 04:23:48;;;;;;;;;;;;;;;12.47;74.44;99386.06;1048809;28;677;-70
2023/01/15 04:24:38;;;;;;;;;;;;;;;12.49;74.24;99385.94;1051254;28;1163;-70
2023/01/15 04:25:29;;;;;;;;;;;;;;;12.50;74.30;99380.44;1051855;28;689;-70
2023/01/15 04:26:19;;;;;;;;;;;;;;;12.49;74.11;99384.09;1052045;28;653;-70
2023/01/15 04:27:10;;;;;;;;;;;;;;;12.50;74.92;99384.94;1051558;28;1107;-70
2023/01/15 04:28:00;;;;;;;;;;;;;;;12.50;74.49;99376.91;1051983;28;713;-70
2023/01/15 04:28:50;;;;;;;;;;;;;;;12.49;75.02;99381.41;1048734;28;610;-70
2023/01/15 04:29:41;;;;;;;;;;;;;;;12.49;74.61;99383.25;1051389;28;1562;-70
2023/01/15 04:30:31;;;;;;;;;;;;;;;12.48;74.31;99378.91;1051664;28;645;-70
2023/01/15 04:31:22;;;;;;;;;;;;;;;12.49;74.95;99377.91;1052315;28;984;-70
2023/01/15 04:32:12;;;;;;;;;;;;;;;12.48;74.02;99371.72;1048531;28;680;-70
2023/01/15 04:33:03;;;;;;;;;;;;;;;12.47;75.03;99363.84;1048558;28;677;-70
2023/01/15 04:33:53;;;;;;;;;;;;;;;12.47;74.44;99369.19;1053020;28;633;-70
2023/01/15 04:34:43;;;;;;;;;;;;;;;12.45;74.52;99373.84;1051719;28;645;-70